createdAt,value
2018-03-18T00:00:07.105Z,0
2018-03-18T00:01:28.999Z,0
2018-03-18T00:02:50.392Z,0
2018-03-18T00:04:12.244Z,0
2018-03-18T00:05:34.244Z,0
2018-03-18T00:06:56.397Z,0
2018-03-18T00:08:17.771Z,0
2018-03-18T00:09:39.663Z,0
2018-03-18T00:11:01.263Z,0
2018-03-18T00:12:23.178Z,0
2018-03-18T00:13:45.175Z,0
2018-03-18T00:15:07.320Z,0
2018-03-18T00:16:29.571Z,0
2018-03-18T00:17:51.456Z,0
2018-03-18T00:19:12.812Z,0
2018-03-18T00:20:34.421Z,0
2018-03-18T00:21:56.340Z,0
2018-03-18T00:23:18.234Z,0
2018-03-18T00:24:39.587Z,0
2018-03-18T00:26:01.213Z,0
2018-03-18T00:27:23.382Z,0
2018-03-18T00:28:45.243Z,0
2018-03-18T00:30:07.192Z,0
2018-03-18T00:31:28.276Z,0
2018-03-18T00:32:50.060Z,0
2018-03-18T00:34:11.610Z,0
2018-03-18T00:35:33.327Z,0
2018-03-18T00:36:55.198Z,0
2018-03-18T00:38:17.092Z,0
2018-03-18T00:39:39.031Z,0
2018-03-18T00:41:01.306Z,0
2018-03-18T00:42:23.196Z,0
2018-03-18T00:43:45.370Z,0
2018-03-18T00:45:07.554Z,0
2018-03-18T00:46:29.422Z,0
2018-03-18T00:47:51.170Z,0
2018-03-18T00:49:12.874Z,0
2018-03-18T00:50:34.740Z,0
2018-03-18T00:51:56.634Z,0
2018-03-18T00:53:18.967Z,0
2018-03-18T00:54:40.990Z,0
2018-03-18T00:56:02.984Z,0
2018-03-18T00:57:24.973Z,0
2018-03-18T00:58:46.912Z,0
2018-03-18T01:00:08.801Z,0
2018-03-18T01:01:30.690Z,0
2018-03-18T01:02:52.576Z,0
2018-03-18T01:04:14.523Z,0
2018-03-18T01:05:36.383Z,0
2018-03-18T01:06:58.257Z,0
2018-03-18T01:08:19.397Z,0
2018-03-18T01:09:41.054Z,0
2018-03-18T01:11:03.045Z,0
2018-03-18T01:12:25.261Z,0
2018-03-18T01:13:47.153Z,0
2018-03-18T01:15:09.045Z,0
2018-03-18T01:16:30.644Z,0
2018-03-18T01:17:52.590Z,0
2018-03-18T01:19:14.235Z,0
2018-03-18T01:20:36.122Z,0
2018-03-18T01:21:57.464Z,0
2018-03-18T01:23:18.812Z,0
2018-03-18T01:24:40.167Z,0
2018-03-18T01:26:02.307Z,0
2018-03-18T01:27:23.933Z,0
2018-03-18T01:28:45.536Z,0
2018-03-18T01:30:07.410Z,0
2018-03-18T01:31:28.477Z,0
2018-03-18T01:32:50.328Z,0
2018-03-18T01:34:11.928Z,0
2018-03-18T01:35:33.523Z,0
2018-03-18T01:36:55.133Z,0
2018-03-18T01:38:16.901Z,0
2018-03-18T01:39:38.513Z,0
2018-03-18T01:40:59.851Z,0
2018-03-18T01:42:21.735Z,0
2018-03-18T01:43:43.763Z,0
2018-03-18T01:45:05.353Z,0
2018-03-18T01:46:27.255Z,0
2018-03-18T01:47:48.617Z,0
2018-03-18T01:49:10.589Z,0
2018-03-18T01:50:32.219Z,0
2018-03-18T01:51:54.095Z,0
2018-03-18T01:53:15.966Z,0
2018-03-18T01:54:37.046Z,0
2018-03-18T01:55:58.642Z,0
2018-03-18T01:57:20.525Z,0
2018-03-18T01:58:42.404Z,0
2018-03-18T02:00:04.017Z,0
2018-03-18T02:01:26.142Z,0
2018-03-18T02:02:48.101Z,0
2018-03-18T02:04:09.721Z,0
2018-03-18T02:05:31.317Z,0
2018-03-18T02:06:52.950Z,0
2018-03-18T02:08:14.817Z,0
2018-03-18T02:09:36.194Z,0
2018-03-18T02:10:58.244Z,0
2018-03-18T02:12:19.845Z,0
2018-03-18T02:13:41.705Z,0
2018-03-18T02:15:03.606Z,0
2018-03-18T02:16:25.057Z,0
2018-03-18T02:17:46.912Z,0
2018-03-18T02:19:08.769Z,0
2018-03-18T02:20:30.671Z,0
2018-03-18T02:21:52.284Z,0
2018-03-18T02:23:13.692Z,0
2018-03-18T02:24:35.890Z,0
2018-03-18T02:25:58.027Z,0
2018-03-18T02:27:19.672Z,0
2018-03-18T02:28:41.274Z,0
2018-03-18T02:30:03.131Z,0
2018-03-18T02:31:25.073Z,0
2018-03-18T02:32:46.673Z,0
2018-03-18T02:34:08.044Z,0
2018-03-18T02:35:29.402Z,0
2018-03-18T02:36:51.372Z,0
2018-03-18T02:38:13.341Z,0
2018-03-18T02:39:34.754Z,0
2018-03-18T02:40:56.360Z,0
2018-03-18T02:42:17.718Z,0
2018-03-18T02:43:39.405Z,0
2018-03-18T02:45:01.272Z,0
2018-03-18T02:46:23.437Z,0
2018-03-18T02:47:45.038Z,0
2018-03-18T02:49:06.646Z,0
2018-03-18T02:50:28.267Z,0
2018-03-18T02:51:50.042Z,0
2018-03-18T02:53:11.637Z,0
2018-03-18T02:54:32.804Z,0
2018-03-18T02:55:54.642Z,0
2018-03-18T02:57:16.584Z,0
2018-03-18T02:58:38.463Z,0
2018-03-18T03:00:00.477Z,0
2018-03-18T03:01:22.382Z,0
2018-03-18T03:02:44.557Z,0
2018-03-18T03:04:05.647Z,0
2018-03-18T03:05:27.531Z,0
2018-03-18T03:06:49.203Z,0
2018-03-18T03:08:11.346Z,0
2018-03-18T03:09:33.240Z,0
2018-03-18T03:10:55.117Z,0
2018-03-18T03:12:16.705Z,0
2018-03-18T03:13:38.311Z,0
2018-03-18T03:14:59.918Z,0
2018-03-18T03:16:21.542Z,0
2018-03-18T03:17:43.153Z,0
2018-03-18T03:19:05.282Z,0
2018-03-18T03:20:27.182Z,0
2018-03-18T03:21:48.891Z,0
2018-03-18T03:23:10.312Z,0
2018-03-18T03:24:31.961Z,0
2018-03-18T03:25:53.835Z,0
2018-03-18T03:27:15.972Z,0
2018-03-18T03:28:37.588Z,0
2018-03-18T03:29:59.482Z,0
2018-03-18T03:31:21.564Z,0
2018-03-18T03:32:42.943Z,0
2018-03-18T03:34:04.321Z,0
2018-03-18T03:35:25.667Z,0
2018-03-18T03:36:47.004Z,0
2018-03-18T03:38:08.396Z,0
2018-03-18T03:39:30.172Z,0
2018-03-18T03:40:52.020Z,0
2018-03-18T03:42:13.874Z,0
2018-03-18T03:43:35.754Z,0
2018-03-18T03:44:57.617Z,0
2018-03-18T03:46:19.571Z,0
2018-03-18T03:47:41.713Z,0
2018-03-18T03:49:03.583Z,0
2018-03-18T03:50:25.491Z,0
2018-03-18T03:51:47.132Z,0
2018-03-18T03:53:09.002Z,0
2018-03-18T03:54:30.666Z,0
2018-03-18T03:55:52.865Z,0
2018-03-18T03:57:15.072Z,0
2018-03-18T03:58:37.577Z,0
2018-03-18T03:59:58.932Z,0
2018-03-18T04:01:20.538Z,0
2018-03-18T04:02:42.132Z,0
2018-03-18T04:04:03.746Z,0
2018-03-18T04:05:25.352Z,0
2018-03-18T04:06:47.655Z,0
2018-03-18T04:08:09.527Z,0
2018-03-18T04:09:31.902Z,0
2018-03-18T04:10:53.515Z,0
2018-03-18T04:12:15.382Z,0
2018-03-18T04:13:37.380Z,0
2018-03-18T04:14:58.733Z,0
2018-03-18T04:16:20.604Z,0
2018-03-18T04:17:42.009Z,0
2018-03-18T04:19:03.882Z,0
2018-03-18T04:20:25.800Z,0
2018-03-18T04:21:47.412Z,0
2018-03-18T04:23:08.780Z,0
2018-03-18T04:24:30.659Z,0
2018-03-18T04:25:52.771Z,0
2018-03-18T04:27:14.346Z,0
2018-03-18T04:28:35.805Z,0
2018-03-18T04:29:57.410Z,0
2018-03-18T04:31:19.061Z,0
2018-03-18T04:32:40.411Z,0
2018-03-18T04:34:02.355Z,0
2018-03-18T04:35:24.223Z,0
2018-03-18T04:36:46.121Z,0
2018-03-18T04:38:07.974Z,0
2018-03-18T04:39:29.588Z,0
2018-03-18T04:40:51.514Z,0
2018-03-18T04:42:13.372Z,0
2018-03-18T04:43:35.357Z,0
2018-03-18T04:44:56.981Z,0
2018-03-18T04:46:18.390Z,0
2018-03-18T04:47:40.283Z,0
2018-03-18T04:49:01.621Z,0
2018-03-18T04:50:23.480Z,0
2018-03-18T04:51:45.608Z,0
2018-03-18T04:53:07.653Z,0
2018-03-18T04:54:29.803Z,0
2018-03-18T04:55:51.412Z,4
2018-03-18T04:57:13.297Z,0
2018-03-18T04:58:35.399Z,4
2018-03-18T04:59:56.805Z,4
2018-03-18T05:01:18.408Z,4
2018-03-18T05:02:40.264Z,4
2018-03-18T05:04:01.676Z,8
2018-03-18T05:05:23.536Z,8
2018-03-18T05:06:45.680Z,8
2018-03-18T05:08:06.771Z,12
2018-03-18T05:09:28.213Z,16
2018-03-18T05:10:49.825Z,20
2018-03-18T05:12:11.167Z,20
2018-03-18T05:13:32.932Z,28
2018-03-18T05:14:55.325Z,36
2018-03-18T05:16:17.204Z,44
2018-03-18T05:17:39.415Z,56
2018-03-18T05:19:01.328Z,68
2018-03-18T05:20:22.927Z,80
2018-03-18T05:21:45.114Z,96
2018-03-18T05:23:06.476Z,116
2018-03-18T05:24:28.606Z,136
2018-03-18T05:25:49.962Z,156
2018-03-18T05:27:12.152Z,188
2018-03-18T05:28:34.067Z,216
2018-03-18T05:29:55.145Z,248
2018-03-18T05:31:17.283Z,284
2018-03-18T05:32:38.902Z,320
2018-03-18T05:34:00.926Z,364
2018-03-18T05:35:21.962Z,412
2018-03-18T05:36:43.606Z,456
2018-03-18T05:38:05.638Z,512
2018-03-18T05:39:27.253Z,564
2018-03-18T05:40:49.505Z,624
2018-03-18T05:42:11.106Z,688
2018-03-18T05:43:33.243Z,756
2018-03-18T05:44:55.384Z,824
2018-03-18T05:46:16.985Z,896
2018-03-18T05:47:38.982Z,968
2018-03-18T05:49:00.853Z,1048
2018-03-18T05:50:23.016Z,1124
2018-03-18T05:51:44.084Z,1208
2018-03-18T05:53:05.508Z,1288
2018-03-18T05:54:27.205Z,1372
2018-03-18T05:55:48.819Z,1452
2018-03-18T05:57:10.954Z,1536
2018-03-18T05:58:33.080Z,1624
2018-03-18T05:59:55.203Z,1712
2018-03-18T06:01:17.063Z,1800
2018-03-18T06:02:39.169Z,1888
2018-03-18T06:04:01.805Z,1976
2018-03-18T06:05:23.404Z,2064
2018-03-18T06:06:45.241Z,2156
2018-03-18T06:08:06.932Z,2264
2018-03-18T06:09:29.083Z,2476
2018-03-18T06:10:51.024Z,2884
2018-03-18T06:12:12.964Z,4524
2018-03-18T06:13:34.850Z,5396
2018-03-18T06:14:56.993Z,5692
2018-03-18T06:16:18.869Z,6052
2018-03-18T06:17:40.473Z,6520
2018-03-18T06:19:02.762Z,6940
2018-03-18T06:20:24.634Z,7400
2018-03-18T06:21:45.988Z,7688
2018-03-18T06:23:08.152Z,8076
2018-03-18T06:24:30.148Z,8456
2018-03-18T06:25:52.020Z,8724
2018-03-18T06:27:13.901Z,9112
2018-03-18T06:28:35.496Z,9608
2018-03-18T06:29:57.364Z,10044
2018-03-18T06:31:18.964Z,10572
2018-03-18T06:32:40.892Z,11000
2018-03-18T06:34:02.582Z,11456
2018-03-18T06:35:24.445Z,12032
2018-03-18T06:36:46.413Z,12192
2018-03-18T06:38:07.749Z,11568
2018-03-18T06:39:29.087Z,10064
2018-03-18T06:40:50.962Z,9332
2018-03-18T06:42:12.591Z,9264
2018-03-18T06:43:33.932Z,9380
2018-03-18T06:44:55.551Z,9432
2018-03-18T06:46:17.534Z,9596
2018-03-18T06:47:39.156Z,9708
2018-03-18T06:49:00.812Z,9696
2018-03-18T06:50:22.391Z,9776
2018-03-18T06:51:43.502Z,9892
2018-03-18T06:53:05.385Z,10112
2018-03-18T06:54:27.530Z,10320
2018-03-18T06:55:49.424Z,10676
2018-03-18T06:57:11.051Z,10952
2018-03-18T06:58:33.018Z,10696
2018-03-18T06:59:54.880Z,10612
2018-03-18T07:01:16.808Z,10492
2018-03-18T07:02:38.400Z,10536
2018-03-18T07:04:00.051Z,10776
2018-03-18T07:05:21.710Z,10800
2018-03-18T07:06:43.066Z,11260
2018-03-18T07:08:04.920Z,10824
2018-03-18T07:09:26.582Z,10564
2018-03-18T07:10:48.482Z,10432
2018-03-18T07:12:10.090Z,10304
2018-03-18T07:13:31.190Z,10332
2018-03-18T07:14:52.850Z,10280
2018-03-18T07:16:14.221Z,10384
2018-03-18T07:17:35.050Z,10372
2018-03-18T07:18:56.457Z,10340
2018-03-18T07:20:18.784Z,10388
2018-03-18T07:21:40.976Z,10164
2018-03-18T07:23:02.614Z,9964
2018-03-18T07:24:24.501Z,9824
2018-03-18T07:25:46.191Z,9768
2018-03-18T07:27:07.906Z,9584
2018-03-18T07:28:29.822Z,9384
2018-03-18T07:29:51.476Z,9052
2018-03-18T07:31:13.211Z,8700
2018-03-18T07:32:34.561Z,8364
2018-03-18T07:33:56.445Z,8052
2018-03-18T07:35:18.349Z,7796
2018-03-18T07:36:40.569Z,7468
2018-03-18T07:38:02.802Z,7216
2018-03-18T07:39:25.009Z,7000
2018-03-18T07:40:46.948Z,6544
2018-03-18T07:42:08.881Z,5740
2018-03-18T07:43:30.530Z,5336
2018-03-18T07:44:52.428Z,5240
2018-03-18T07:46:14.390Z,5200
2018-03-18T07:47:36.379Z,5176
2018-03-18T07:48:58.514Z,5180
2018-03-18T07:50:20.399Z,5184
2018-03-18T07:51:42.644Z,5184
2018-03-18T07:53:04.263Z,5164
2018-03-18T07:54:26.407Z,5176
2018-03-18T07:55:48.040Z,5184
2018-03-18T07:57:41.377Z,5184
2018-03-18T07:59:02.742Z,5188
2018-03-18T08:00:24.620Z,5192
2018-03-18T08:01:46.911Z,5180
2018-03-18T08:03:08.551Z,5184
2018-03-18T08:04:30.191Z,5188
2018-03-18T08:05:51.830Z,5204
2018-03-18T08:07:13.436Z,5204
2018-03-18T08:08:35.451Z,5200
2018-03-18T08:09:57.481Z,5216
2018-03-18T08:11:19.351Z,5224
2018-03-18T08:12:41.481Z,5212
2018-03-18T08:14:03.690Z,5208
2018-03-18T08:15:25.886Z,5224
2018-03-18T08:16:47.947Z,5228
2018-03-18T08:18:09.846Z,5224
2018-03-18T08:19:31.708Z,5252
2018-03-18T08:20:53.925Z,5256
2018-03-18T08:22:15.800Z,5256
2018-03-18T08:23:37.910Z,5244
2018-03-18T08:25:00.052Z,5236
2018-03-18T08:26:22.237Z,5236
2018-03-18T08:27:44.388Z,5240
2018-03-18T08:29:06.314Z,5244
2018-03-18T08:30:28.508Z,5232
2018-03-18T08:31:50.380Z,5240
2018-03-18T08:33:12.531Z,5240
2018-03-18T08:34:34.690Z,5252
2018-03-18T08:35:56.410Z,5244
2018-03-18T08:37:18.750Z,5240
2018-03-18T08:38:41.683Z,5236
2018-03-18T08:40:03.576Z,5240
2018-03-18T08:41:25.751Z,5244
2018-03-18T08:42:47.384Z,5244
2018-03-18T08:44:09.343Z,5240
2018-03-18T08:45:31.221Z,5224
2018-03-18T08:46:53.207Z,5204
2018-03-18T08:48:15.349Z,5184
2018-03-18T08:49:37.087Z,5192
2018-03-18T08:50:59.314Z,5192
2018-03-18T08:52:21.069Z,5192
2018-03-18T08:53:43.397Z,5184
2018-03-18T08:55:05.293Z,5192
2018-03-18T08:56:27.434Z,5188
2018-03-18T08:57:49.103Z,5196
2018-03-18T08:59:10.742Z,5196
2018-03-18T09:00:32.991Z,5176
2018-03-18T09:01:54.931Z,5172
2018-03-18T09:03:16.900Z,5156
2018-03-18T09:04:38.382Z,5148
2018-03-18T09:06:00.008Z,5144
2018-03-18T09:07:21.954Z,5140
2018-03-18T09:08:43.847Z,5128
2018-03-18T09:10:05.740Z,5116
2018-03-18T09:11:27.637Z,5108
2018-03-18T09:12:49.260Z,5092
2018-03-18T09:14:10.964Z,5080
2018-03-18T09:15:32.863Z,5072
2018-03-18T09:16:54.485Z,5052
2018-03-18T09:18:16.120Z,5048
2018-03-18T09:19:37.202Z,5044
2018-03-18T09:20:59.363Z,5020
2018-03-18T09:22:20.864Z,5004
2018-03-18T09:23:42.495Z,4996
2018-03-18T09:25:04.223Z,4984
2018-03-18T09:26:26.420Z,4980
2018-03-18T09:27:48.590Z,4976
2018-03-18T09:29:10.880Z,4988
2018-03-18T09:30:32.570Z,4996
2018-03-18T09:31:54.175Z,5004
2018-03-18T09:33:16.089Z,5004
2018-03-18T09:34:38.012Z,4992
2018-03-18T09:35:59.648Z,4984
2018-03-18T09:37:21.801Z,4972
2018-03-18T09:38:43.483Z,4964
2018-03-18T09:40:05.851Z,4964
2018-03-18T09:41:28.015Z,4960
2018-03-18T09:42:49.365Z,4952
2018-03-18T09:44:11.009Z,4948
2018-03-18T09:45:32.934Z,4936
2018-03-18T09:46:54.927Z,4924
2018-03-18T09:48:16.287Z,4924
2018-03-18T09:49:38.492Z,4908
2018-03-18T09:51:00.764Z,4920
2018-03-18T09:52:22.694Z,4916
2018-03-18T09:53:44.082Z,4912
2018-03-18T09:55:05.463Z,4912
2018-03-18T09:56:27.458Z,4904
2018-03-18T09:57:49.475Z,4888
2018-03-18T09:59:11.770Z,4868
2018-03-18T10:00:34.063Z,4860
2018-03-18T10:01:55.843Z,4848
2018-03-18T10:03:17.763Z,4828
2018-03-18T10:04:39.935Z,4828
2018-03-18T10:06:02.191Z,4816
2018-03-18T10:07:24.382Z,4796
2018-03-18T10:08:46.252Z,4804
2018-03-18T10:10:07.955Z,4804
2018-03-18T10:11:29.930Z,4804
2018-03-18T10:12:52.051Z,4800
2018-03-18T10:14:13.744Z,4796
2018-03-18T10:15:36.112Z,4796
2018-03-18T10:17:29.884Z,4792
2018-03-18T10:18:52.081Z,4796
2018-03-18T10:20:13.790Z,4804
2018-03-18T10:21:36.226Z,4788
2018-03-18T10:22:58.383Z,4784
2018-03-18T10:24:20.526Z,4780
2018-03-18T10:25:42.641Z,4776
2018-03-18T10:27:04.537Z,4764
2018-03-18T10:28:26.701Z,4752
2018-03-18T10:29:48.745Z,4756
2018-03-18T10:31:10.389Z,4744
2018-03-18T10:32:32.603Z,4740
2018-03-18T10:33:54.267Z,4740
2018-03-18T10:35:16.513Z,4736
2018-03-18T10:36:38.401Z,4740
2018-03-18T10:38:00.290Z,4728
2018-03-18T10:39:22.200Z,4724
2018-03-18T10:40:44.351Z,4724
2018-03-18T10:42:06.189Z,4720
2018-03-18T10:43:28.094Z,4720
2018-03-18T10:44:49.974Z,4712
2018-03-18T10:46:11.897Z,4708
2018-03-18T10:47:33.239Z,4700
2018-03-18T10:48:55.026Z,4700
2018-03-18T10:50:16.702Z,4692
2018-03-18T10:51:38.792Z,4696
2018-03-18T10:53:02.075Z,4688
2018-03-18T10:54:23.927Z,4680
2018-03-18T10:55:45.865Z,4672
2018-03-18T10:57:07.275Z,4672
2018-03-18T10:58:29.564Z,4664
2018-03-18T10:59:51.293Z,4652
2018-03-18T11:01:13.272Z,4648
2018-03-18T11:02:34.994Z,4644
2018-03-18T11:03:56.997Z,4648
2018-03-18T11:05:19.192Z,4644
2018-03-18T11:06:41.397Z,4636
2018-03-18T11:08:03.626Z,4632
2018-03-18T11:09:25.638Z,4624
2018-03-18T11:10:48.124Z,4624
2018-03-18T11:12:10.295Z,4628
2018-03-18T11:13:32.731Z,4628
2018-03-18T11:14:54.984Z,4628
2018-03-18T11:16:17.194Z,4620
2018-03-18T11:17:40.050Z,4612
2018-03-18T11:19:02.226Z,4612
2018-03-18T11:20:24.428Z,4620
2018-03-18T11:21:46.399Z,4620
2018-03-18T11:23:08.414Z,4616
2018-03-18T11:24:30.346Z,4604
2018-03-18T11:25:52.280Z,4604
2018-03-18T11:27:14.581Z,4608
2018-03-18T11:28:36.441Z,4604
2018-03-18T11:29:57.879Z,4600
2018-03-18T11:31:20.116Z,4596
2018-03-18T11:32:42.325Z,4592
2018-03-18T11:34:04.255Z,4584
2018-03-18T11:35:26.022Z,4584
2018-03-18T11:36:48.202Z,4584
2018-03-18T11:38:10.487Z,4576
2018-03-18T11:39:32.689Z,4572
2018-03-18T11:40:54.625Z,4568
2018-03-18T11:42:48.473Z,4564
2018-03-18T11:44:10.461Z,4560
2018-03-18T11:45:32.361Z,4556
2018-03-18T11:46:54.688Z,4556
2018-03-18T11:48:16.902Z,4552
2018-03-18T11:49:38.645Z,4540
2018-03-18T11:51:00.842Z,4544
2018-03-18T11:52:22.502Z,4532
2018-03-18T11:53:44.173Z,4524
2018-03-18T11:55:06.115Z,4520
2018-03-18T11:56:28.145Z,4520
2018-03-18T11:57:49.788Z,4524
2018-03-18T11:59:12.020Z,4524
2018-03-18T12:00:33.966Z,4520
2018-03-18T12:01:55.951Z,4520
2018-03-18T12:03:18.055Z,4520
2018-03-18T12:04:39.991Z,4516
2018-03-18T12:06:01.921Z,4504
2018-03-18T12:07:23.860Z,4492
2018-03-18T12:08:45.882Z,4496
2018-03-18T12:10:08.244Z,4488
2018-03-18T12:11:30.191Z,4492
2018-03-18T12:12:52.457Z,4492
2018-03-18T12:14:14.143Z,4488
2018-03-18T12:15:36.371Z,4472
2018-03-18T12:16:58.044Z,4476
2018-03-18T12:18:19.715Z,4464
2018-03-18T12:19:41.180Z,4452
2018-03-18T12:21:02.901Z,4444
2018-03-18T12:22:25.129Z,4444
2018-03-18T12:23:47.325Z,4452
2018-03-18T12:25:09.241Z,4444
2018-03-18T12:26:31.459Z,4448
2018-03-18T12:27:53.492Z,4436
2018-03-18T12:29:15.772Z,4432
2018-03-18T12:30:37.935Z,4428
2018-03-18T12:32:00.109Z,4428
2018-03-18T12:33:22.037Z,4428
2018-03-18T12:34:44.228Z,4424
2018-03-18T12:36:06.183Z,4420
2018-03-18T12:37:28.371Z,4416
2018-03-18T12:38:50.077Z,4392
2018-03-18T12:40:11.712Z,4404
2018-03-18T12:41:33.392Z,4396
2018-03-18T12:42:55.319Z,4392
2018-03-18T12:44:17.266Z,4388
2018-03-18T12:45:39.365Z,4392
2018-03-18T12:47:01.054Z,4380
2018-03-18T12:48:22.722Z,4376
2018-03-18T12:49:44.368Z,4376
2018-03-18T12:51:06.005Z,4376
2018-03-18T12:52:27.632Z,4364
2018-03-18T12:53:49.825Z,4360
2018-03-18T12:55:11.498Z,4360
2018-03-18T12:56:33.551Z,4348
2018-03-18T12:57:55.670Z,4344
2018-03-18T12:59:17.439Z,4336
2018-03-18T13:00:39.391Z,4328
2018-03-18T13:02:01.090Z,4320
2018-03-18T13:03:22.992Z,4312
2018-03-18T13:04:45.322Z,4304
2018-03-18T13:06:06.981Z,4296
2018-03-18T13:07:28.874Z,4292
2018-03-18T13:08:50.575Z,4288
2018-03-18T13:10:12.199Z,4284
2018-03-18T13:11:33.636Z,4280
2018-03-18T13:12:55.635Z,4280
2018-03-18T13:14:17.739Z,4280
2018-03-18T13:15:39.390Z,4272
2018-03-18T13:17:01.399Z,4264
2018-03-18T13:18:23.306Z,4260
2018-03-18T13:19:44.952Z,4260
2018-03-18T13:21:06.913Z,4256
2018-03-18T13:22:29.300Z,4260
2018-03-18T13:23:51.862Z,4260
2018-03-18T13:25:14.225Z,4260
2018-03-18T13:26:36.459Z,4260
2018-03-18T13:27:58.234Z,4264
2018-03-18T13:29:19.529Z,4260
2018-03-18T13:30:41.310Z,4256
2018-03-18T13:32:03.645Z,4260
2018-03-18T13:33:27.692Z,4260
2018-03-18T13:34:50.325Z,4260
2018-03-18T13:36:12.818Z,4252
2018-03-18T13:37:35.240Z,4252
2018-03-18T13:38:57.262Z,4248
2018-03-18T13:40:19.243Z,4244
2018-03-18T13:41:41.272Z,4248
2018-03-18T13:43:03.273Z,4244
2018-03-18T13:44:25.635Z,4248
2018-03-18T13:45:47.802Z,4248
2018-03-18T13:47:09.918Z,4240
2018-03-18T13:48:32.253Z,4240
2018-03-18T13:49:54.483Z,4236
2018-03-18T13:51:16.533Z,4236
2018-03-18T13:52:38.791Z,4228
2018-03-18T13:54:00.593Z,4228
2018-03-18T13:55:22.631Z,4220
2018-03-18T13:56:44.663Z,4216
2018-03-18T13:58:06.653Z,4208
2018-03-18T13:59:28.406Z,4208
2018-03-18T14:00:50.331Z,4208
2018-03-18T14:02:12.281Z,4204
2018-03-18T14:03:34.205Z,4196
2018-03-18T14:04:56.482Z,4192
2018-03-18T14:06:18.758Z,4188
2018-03-18T14:07:40.940Z,4184
2018-03-18T14:09:02.934Z,4172
2018-03-18T14:10:25.163Z,4172
2018-03-18T14:11:47.175Z,4168
2018-03-18T14:13:08.877Z,4164
2018-03-18T14:14:29.959Z,4160
2018-03-18T14:15:52.231Z,4160
2018-03-18T14:17:14.514Z,4156
2018-03-18T14:18:36.626Z,4144
2018-03-18T14:19:58.734Z,4136
2018-03-18T14:21:20.320Z,4132
2018-03-18T14:22:42.202Z,4124
2018-03-18T14:24:04.259Z,4120
2018-03-18T14:25:26.304Z,4112
2018-03-18T14:26:48.320Z,4104
2018-03-18T14:28:10.094Z,4096
2018-03-18T14:29:32.587Z,4092
2018-03-18T14:30:54.852Z,4084
2018-03-18T14:32:16.222Z,4076
2018-03-18T14:33:38.406Z,4068
2018-03-18T14:35:00.333Z,4060
2018-03-18T14:36:22.618Z,4048
2018-03-18T14:37:44.582Z,4036
2018-03-18T14:39:06.602Z,4020
2018-03-18T14:40:28.275Z,4008
2018-03-18T14:41:50.329Z,4004
2018-03-18T14:43:11.985Z,3996
2018-03-18T14:44:33.720Z,3988
2018-03-18T14:45:55.382Z,3980
2018-03-18T14:47:17.552Z,3972
2018-03-18T14:48:39.221Z,3964
2018-03-18T14:50:01.717Z,3956
2018-03-18T14:51:24.211Z,3944
2018-03-18T14:52:46.231Z,3932
2018-03-18T14:54:08.280Z,3920
2018-03-18T14:55:30.183Z,3908
2018-03-18T14:56:52.066Z,3900
2018-03-18T14:58:14.233Z,3884
2018-03-18T14:59:35.967Z,3876
2018-03-18T15:00:58.345Z,3864
2018-03-18T15:02:20.481Z,3856
2018-03-18T15:03:42.173Z,3844
2018-03-18T15:05:04.363Z,3832
2018-03-18T15:06:26.318Z,3824
2018-03-18T15:07:48.282Z,3808
2018-03-18T15:09:09.916Z,3800
2018-03-18T15:10:32.124Z,3788
2018-03-18T15:11:54.349Z,3772
2018-03-18T15:13:16.514Z,3764
2018-03-18T15:14:38.691Z,3748
2018-03-18T15:16:00.620Z,3736
2018-03-18T15:17:22.804Z,3724
2018-03-18T15:18:44.473Z,3712
2018-03-18T15:20:06.895Z,3696
2018-03-18T15:21:28.741Z,3680
2018-03-18T15:22:50.484Z,3668
2018-03-18T15:24:12.158Z,3660
2018-03-18T15:25:33.806Z,3652
2018-03-18T15:26:56.026Z,3636
2018-03-18T15:28:17.672Z,3620
2018-03-18T15:29:39.853Z,3608
2018-03-18T15:31:01.784Z,3588
2018-03-18T15:32:23.284Z,3576
2018-03-18T15:33:44.915Z,3560
2018-03-18T15:35:07.142Z,3548
2018-03-18T15:36:28.511Z,3528
2018-03-18T15:37:50.404Z,3508
2018-03-18T15:39:12.225Z,3496
2018-03-18T15:40:34.190Z,3480
2018-03-18T15:41:56.375Z,3464
2018-03-18T15:43:18.668Z,3440
2018-03-18T15:44:40.690Z,3424
2018-03-18T15:46:02.616Z,3408
2018-03-18T15:47:24.374Z,3392
2018-03-18T15:48:46.401Z,3372
2018-03-18T15:50:08.487Z,3356
2018-03-18T15:51:30.202Z,3332
2018-03-18T15:52:52.210Z,3312
2018-03-18T15:54:14.347Z,3288
2018-03-18T15:55:36.446Z,3268
2018-03-18T15:56:58.400Z,3244
2018-03-18T15:58:20.563Z,3220
2018-03-18T15:59:42.692Z,3196
2018-03-18T16:01:06.097Z,3172
2018-03-18T16:02:28.230Z,3148
2018-03-18T16:03:50.285Z,3120
2018-03-18T16:05:12.503Z,3096
2018-03-18T16:06:34.754Z,3072
2018-03-18T16:07:56.716Z,3044
2018-03-18T16:09:19.103Z,3020
2018-03-18T16:10:41.376Z,2996
2018-03-18T16:12:03.382Z,2968
2018-03-18T16:13:25.290Z,2940
2018-03-18T16:14:47.582Z,2912
2018-03-18T16:16:09.660Z,2880
2018-03-18T16:17:31.894Z,2852
2018-03-18T16:18:54.107Z,2820
2018-03-18T16:20:16.332Z,2792
2018-03-18T16:21:38.007Z,2760
2018-03-18T16:22:59.980Z,2724
2018-03-18T16:24:21.951Z,2688
2018-03-18T16:25:44.192Z,2660
2018-03-18T16:27:06.982Z,2624
2018-03-18T16:28:29.038Z,2584
2018-03-18T16:29:51.232Z,2552
2018-03-18T16:31:13.456Z,2512
2018-03-18T16:32:34.896Z,2472
2018-03-18T16:33:56.643Z,2436
2018-03-18T16:35:18.323Z,2400
2018-03-18T16:36:40.345Z,2360
2018-03-18T16:38:02.316Z,2320
2018-03-18T16:39:24.591Z,2276
2018-03-18T16:40:46.381Z,2232
2018-03-18T16:42:08.316Z,2188
2018-03-18T16:43:30.516Z,2148
2018-03-18T16:44:52.470Z,2100
2018-03-18T16:46:14.959Z,2052
2018-03-18T16:47:36.985Z,2004
2018-03-18T16:48:58.524Z,1956
2018-03-18T16:50:20.612Z,1908
2018-03-18T16:51:42.696Z,1856
2018-03-18T16:53:04.652Z,1804
2018-03-18T16:54:26.608Z,1752
2018-03-18T16:55:48.885Z,1700
2018-03-18T16:57:10.872Z,1648
2018-03-18T16:58:33.076Z,1588
2018-03-18T16:59:55.210Z,1532
2018-03-18T17:01:17.239Z,1476
2018-03-18T17:02:39.438Z,1420
2018-03-18T17:04:01.359Z,1360
2018-03-18T17:05:23.593Z,1300
2018-03-18T17:06:45.271Z,1240
2018-03-18T17:08:07.701Z,1180
2018-03-18T17:09:29.613Z,1124
2018-03-18T17:10:51.793Z,1064
2018-03-18T17:12:13.989Z,1000
2018-03-18T17:13:36.201Z,940
2018-03-18T17:14:58.081Z,884
2018-03-18T17:16:20.019Z,828
2018-03-18T17:17:41.971Z,768
2018-03-18T17:19:04.147Z,708
2018-03-18T17:20:26.311Z,656
2018-03-18T17:21:48.482Z,604
2018-03-18T17:23:10.470Z,552
2018-03-18T17:24:32.515Z,500
2018-03-18T17:25:54.677Z,452
2018-03-18T17:27:16.601Z,408
2018-03-18T17:28:38.861Z,364
2018-03-18T17:30:00.779Z,324
2018-03-18T17:31:23.100Z,288
2018-03-18T17:32:45.439Z,252
2018-03-18T17:34:07.372Z,220
2018-03-18T17:35:29.708Z,192
2018-03-18T17:36:52.036Z,164
2018-03-18T17:38:15.422Z,152
2018-03-18T17:39:37.637Z,132
2018-03-18T17:41:00.187Z,112
2018-03-18T17:42:22.238Z,92
2018-03-18T17:43:44.171Z,80
2018-03-18T17:45:05.327Z,72
2018-03-18T17:46:27.517Z,60
2018-03-18T17:47:49.553Z,52
2018-03-18T17:49:11.781Z,40
2018-03-18T17:50:34.015Z,36
2018-03-18T17:51:55.464Z,32
2018-03-18T17:53:17.731Z,24
2018-03-18T17:54:39.683Z,24
2018-03-18T17:56:02.017Z,20
2018-03-18T17:57:23.734Z,20
2018-03-18T17:58:45.713Z,20
2018-03-18T18:00:07.372Z,16
2018-03-18T18:01:29.682Z,16
2018-03-18T18:02:51.634Z,16
2018-03-18T18:04:13.916Z,16
2018-03-18T18:05:35.904Z,16
2018-03-18T18:06:57.610Z,16
2018-03-18T18:08:19.838Z,12
2018-03-18T18:09:41.491Z,12
2018-03-18T18:11:02.941Z,12
2018-03-18T18:12:24.919Z,12
2018-03-18T18:13:46.572Z,0
2018-03-18T18:15:08.482Z,0
2018-03-18T18:16:30.425Z,0
2018-03-18T18:17:52.619Z,0
2018-03-18T18:19:14.798Z,0
2018-03-18T18:20:37.000Z,0
2018-03-18T18:21:58.747Z,0
2018-03-18T18:23:20.471Z,0
2018-03-18T18:24:42.381Z,0
2018-03-18T18:26:04.289Z,0
2018-03-18T18:27:25.973Z,0
2018-03-18T18:28:47.947Z,0
2018-03-18T18:30:09.872Z,0
2018-03-18T18:31:31.891Z,0
2018-03-18T18:32:53.907Z,0
2018-03-18T18:34:15.927Z,0
2018-03-18T18:35:37.903Z,0
2018-03-18T18:37:00.542Z,0
2018-03-18T18:38:23.003Z,0
2018-03-18T18:39:45.448Z,0
2018-03-18T18:41:07.562Z,0
2018-03-18T18:42:29.728Z,0
2018-03-18T18:43:52.131Z,0
2018-03-18T18:45:14.259Z,0
2018-03-18T18:46:36.488Z,0
2018-03-18T18:47:59.331Z,0
2018-03-18T18:49:20.921Z,0